^^
Meteo Knjazevac Station Historical Data
Daily Summary for March 17, 2021 Units:  Both    English   Metric
Daily Weekly Monthly Yearly Custom
  High: Low: Average:
Temperature: 87.8 °F /  31 °C 64.8 °F /  18.2 °C 73.1 °F /  22.8 °C
Dew Point: 74.5 °F /  23.6 °C 64.5 °F /  18.1 °C 68.6 °F /  20.3 °C
Humidity: 99% 60% 87%
Wind Speed: 12mph /  19.3km/h - 3.1mph /  5km/h
Wind Gust: 20mph /  32.2km/h - -
Wind- - SW
Pressure: 29.97 in /  1014.8 hPa 29.81 in /  1009.4 hPa -
Precipitation: 0.11 in /  2.79 mm    
Historical Graphs
 
 
Tabular Data for March 17, 2021
Time Temperature Dew Point Pressure Wind Wind Speed Wind Gust Humidity Rainfall Rate (Hourly) solar Conditions
00:00 66.9 °F /  19.4 °C 66.6 °F /  19.2 °C 29.96in /  1014.4hPa SW 2mph /  3.2km/h 10mph /  16.1km/h 99% 0.01in /  0.25mm 0 W/m2
00:10 66.7 °F /  19.3 °C 66.5 °F /  19.2 °C 29.97in /  1014.8hPa SW 5mph /  8km/h 9mph /  14.5km/h 99% 0.00in /  0mm 0 W/m2
00:20 66.7 °F /  19.3 °C 66.5 °F /  19.2 °C 29.96in /  1014.4hPa SW 3mph /  4.8km/h 8mph /  12.9km/h 99% 0.00in /  0mm 0 W/m2
00:30 66.7 °F /  19.3 °C 66.5 °F /  19.2 °C 29.95in /  1014.1hPa South 2mph /  3.2km/h 4mph /  6.4km/h 99% 0.00in /  0mm 0 W/m2
00:40 66.7 °F /  19.3 °C 66.5 °F /  19.2 °C 29.95in /  1014.1hPa SW 2mph /  3.2km/h 4mph /  6.4km/h 99% 0.00in /  0mm 0 W/m2
00:50 66.6 °F /  19.2 °C 66.3 °F /  19.1 °C 29.94in /  1013.8hPa WSW 2mph /  3.2km/h 7mph /  11.3km/h 99% 0.00in /  0mm 0 W/m2
01:00 66.7 °F /  19.3 °C 66.4 °F /  19.1 °C 29.93in /  1013.4hPa SW 5mph /  8km/h 7mph /  11.3km/h 99% 0.03in /  0.76mm 0 W/m2
01:10 66.7 °F /  19.3 °C 66.5 °F /  19.2 °C 29.93in /  1013.4hPa SW 3mph /  4.8km/h 7mph /  11.3km/h 99% 0.03in /  0.76mm 0 W/m2
01:20 66.7 °F /  19.3 °C 66.4 °F /  19.1 °C 29.91in /  1012.8hPa South 1mph /  1.6km/h 6mph /  9.7km/h 99% 0.00in /  0mm 0 W/m2
01:30 66.6 °F /  19.2 °C 66.3 °F /  19.1 °C 29.92in /  1013.1hPa NW 3mph /  4.8km/h 7mph /  11.3km/h 99% 0.01in /  0.25mm 0 W/m2
01:40 66.5 °F /  19.2 °C 66.2 °F /  19 °C 29.93in /  1013.4hPa WSW 3mph /  4.8km/h 8mph /  12.9km/h 99% 0.01in /  0.25mm 0 W/m2
01:50 66.4 °F /  19.1 °C 66.1 °F /  18.9 °C 29.94in /  1013.8hPa WSW 3mph /  4.8km/h 11mph /  17.7km/h 99% 0.00in /  0mm 0 W/m2
02:00 66.2 °F /  19 °C 65.9 °F /  18.8 °C 29.93in /  1013.4hPa WNW 2mph /  3.2km/h 6mph /  9.7km/h 99% 0.00in /  0mm 0 W/m2
02:10 66 °F /  18.9 °C 65.7 °F /  18.7 °C 29.93in /  1013.4hPa NW 2mph /  3.2km/h 7mph /  11.3km/h 99% 0.00in /  0mm 0 W/m2
02:20 66.2 °F /  19 °C 65.9 °F /  18.8 °C 29.93in /  1013.4hPa NNE 2mph /  3.2km/h 4mph /  6.4km/h 99% 0.00in /  0mm 0 W/m2
02:30 66.2 °F /  19 °C 65.9 °F /  18.8 °C 29.93in /  1013.4hPa NNE 2mph /  3.2km/h 4mph /  6.4km/h 99% 0.00in /  0mm 0 W/m2
02:40 66 °F /  18.9 °C 65.7 °F /  18.7 °C 29.92in /  1013.1hPa NNE 3mph /  4.8km/h 6mph /  9.7km/h 99% 0.00in /  0mm 0 W/m2
02:50 66 °F /  18.9 °C 65.7 °F /  18.7 °C 29.92in /  1013.1hPa North 1mph /  1.6km/h 5mph /  8km/h 99% 0.00in /  0mm 0 W/m2
03:00 66 °F /  18.9 °C 65.7 °F /  18.7 °C 29.92in /  1013.1hPa Calm   2mph /  3.2km/h 99% 0.00in /  0mm 0 W/m2
03:10 65.8 °F /  18.8 °C 65.6 °F /  18.7 °C 29.93in /  1013.4hPa NW 2mph /  3.2km/h 5mph /  8km/h 99% 0.00in /  0mm 0 W/m2
03:20 65.8 °F /  18.8 °C 65.6 °F /  18.7 °C 29.93in /  1013.4hPa NW 2mph /  3.2km/h 5mph /  8km/h 99% 0.00in /  0mm 0 W/m2
03:30 65.8 °F /  18.8 °C 65.6 °F /  18.7 °C 29.93in /  1013.4hPa NNW 2mph /  3.2km/h 4mph /  6.4km/h 99% 0.00in /  0mm 0 W/m2
03:40 65.8 °F /  18.8 °C 65.6 °F /  18.7 °C 29.93in /  1013.4hPa NNW 1mph /  1.6km/h 4mph /  6.4km/h 99% 0.00in /  0mm 0 W/m2
03:50 65.7 °F /  18.7 °C 65.4 °F /  18.6 °C 29.93in /  1013.4hPa NW 1mph /  1.6km/h 5mph /  8km/h 99% 0.00in /  0mm 0 W/m2
04:00 65.7 °F /  18.7 °C 65.4 °F /  18.6 °C 29.93in /  1013.4hPa NW 2mph /  3.2km/h 4mph /  6.4km/h 99% 0.00in /  0mm 0 W/m2
04:10 65.5 °F /  18.6 °C 65.2 °F /  18.4 °C 29.93in /  1013.4hPa Calm   3mph /  4.8km/h 99% 0.00in /  0mm 0 W/m2
04:20 65.5 °F /  18.6 °C 65.2 °F /  18.4 °C 29.93in /  1013.4hPa NNW 1mph /  1.6km/h 2mph /  3.2km/h 99% 0.00in /  0mm 0 W/m2
04:30 65.3 °F /  18.5 °C 65 °F /  18.3 °C 29.93in /  1013.4hPa NNW 1mph /  1.6km/h 2mph /  3.2km/h 99% 0.00in /  0mm 0 W/m2
04:40 65.3 °F /  18.5 °C 65 °F /  18.3 °C 29.93in /  1013.4hPa Calm   3mph /  4.8km/h 99% 0.00in /  0mm 0 W/m2
04:50 65.1 °F /  18.4 °C 64.8 °F /  18.2 °C 29.93in /  1013.4hPa NNW 1mph /  1.6km/h 2mph /  3.2km/h 99% 0.00in /  0mm 0 W/m2
05:00 65.1 °F /  18.4 °C 64.8 °F /  18.2 °C 29.93in /  1013.4hPa NNW 2mph /  3.2km/h 3mph /  4.8km/h 99% 0.00in /  0mm 0 W/m2
05:10 64.9 °F /  18.3 °C 64.7 °F /  18.2 °C 29.93in /  1013.4hPa NNW 1mph /  1.6km/h 2mph /  3.2km/h 99% 0.00in /  0mm 2 W/m2
05:20 64.9 °F /  18.3 °C 64.7 °F /  18.2 °C 29.93in /  1013.4hPa North 1mph /  1.6km/h 2mph /  3.2km/h 99% 0.00in /  0mm 5 W/m2
05:30 64.8 °F /  18.2 °C 64.5 °F /  18.1 °C 29.93in /  1013.4hPa Calm   2mph /  3.2km/h 99% 0.00in /  0mm 3 W/m2
05:40 64.8 °F /  18.2 °C 64.5 °F /  18.1 °C 29.94in /  1013.8hPa NNW 2mph /  3.2km/h 3mph /  4.8km/h 99% 0.00in /  0mm 6 W/m2
05:50 64.8 °F /  18.2 °C 64.5 °F /  18.1 °C 29.94in /  1013.8hPa NW 1mph /  1.6km/h 4mph /  6.4km/h 99% 0.00in /  0mm 8 W/m2
06:00 64.8 °F /  18.2 °C 64.5 °F /  18.1 °C 29.94in /  1013.8hPa NNW 1mph /  1.6km/h 3mph /  4.8km/h 99% 0.00in /  0mm 7 W/m2
06:10 64.8 °F /  18.2 °C 64.5 °F /  18.1 °C 29.94in /  1013.8hPa NNW 1mph /  1.6km/h 2mph /  3.2km/h 99% 0.02in /  0.51mm 10 W/m2
06:20 64.8 °F /  18.2 °C 64.5 °F /  18.1 °C 29.93in /  1013.4hPa WNW 2mph /  3.2km/h 5mph /  8km/h 99% 0.01in /  0.25mm 14 W/m2
06:30 64.8 °F /  18.2 °C 64.5 °F /  18.1 °C 29.93in /  1013.4hPa WNW 1mph /  1.6km/h 5mph /  8km/h 99% 0.00in /  0mm 15 W/m2
06:40 65 °F /  18.3 °C 64.7 °F /  18.2 °C 29.93in /  1013.4hPa NW 1mph /  1.6km/h 4mph /  6.4km/h 99% 0.00in /  0mm 12 W/m2
06:50 65.1 °F /  18.4 °C 64.8 °F /  18.2 °C 29.93in /  1013.4hPa WNW 1mph /  1.6km/h 4mph /  6.4km/h 99% 0.00in /  0mm 20 W/m2
07:00 64.9 °F /  18.3 °C 64.7 °F /  18.2 °C 29.93in /  1013.4hPa Calm   2mph /  3.2km/h 99% 0.00in /  0mm 26 W/m2
07:10 65.1 °F /  18.4 °C 64.8 °F /  18.2 °C 29.93in /  1013.4hPa WNW 1mph /  1.6km/h 2mph /  3.2km/h 99% 0.00in /  0mm 34 W/m2
07:20 65.1 °F /  18.4 °C 64.8 °F /  18.2 °C 29.93in /  1013.4hPa NNW 2mph /  3.2km/h 4mph /  6.4km/h 99% 0.00in /  0mm 45 W/m2
07:30 65.3 °F /  18.5 °C 65 °F /  18.3 °C 29.93in /  1013.4hPa Calm   4mph /  6.4km/h 99% 0.00in /  0mm 56 W/m2
07:40 65.4 °F /  18.6 °C 65.1 °F /  18.4 °C 29.93in /  1013.4hPa NNW 1mph /  1.6km/h 2mph /  3.2km/h 99% 0.00in /  0mm 79 W/m2
07:50 65.5 °F /  18.6 °C 65.2 °F /  18.4 °C 29.92in /  1013.1hPa NW 1mph /  1.6km/h 3mph /  4.8km/h 99% 0.00in /  0mm 101 W/m2
08:00 65.8 °F /  18.8 °C 65.6 °F /  18.7 °C 29.93in /  1013.4hPa Calm   3mph /  4.8km/h 99% 0.00in /  0mm 129 W/m2
08:10 66 °F /  18.9 °C 65.7 °F /  18.7 °C 29.93in /  1013.4hPa North 1mph /  1.6km/h 3mph /  4.8km/h 99% 0.01in /  0.25mm 153 W/m2
08:20 66.4 °F /  19.1 °C 66.1 °F /  18.9 °C 29.93in /  1013.4hPa North 2mph /  3.2km/h 4mph /  6.4km/h 99% 0.00in /  0mm 200 W/m2
08:30 66.6 °F /  19.2 °C 66.3 °F /  19.1 °C 29.93in /  1013.4hPa North 1mph /  1.6km/h 5mph /  8km/h 99% 0.00in /  0mm 112 W/m2
08:40 66.9 °F /  19.4 °C 66.6 °F /  19.2 °C 29.94in /  1013.8hPa North 1mph /  1.6km/h 3mph /  4.8km/h 99% 0.00in /  0mm 122 W/m2
08:50 67 °F /  19.4 °C 66.7 °F /  19.3 °C 29.93in /  1013.4hPa NNE 1mph /  1.6km/h 4mph /  6.4km/h 99% 0.00in /  0mm 217 W/m2
09:00 67.3 °F /  19.6 °C 67 °F /  19.4 °C 29.93in /  1013.4hPa NNE 1mph /  1.6km/h 5mph /  8km/h 99% 0.00in /  0mm 259 W/m2
09:10 67.5 °F /  19.7 °C 67.2 °F /  19.6 °C 29.93in /  1013.4hPa NNE 2mph /  3.2km/h 5mph /  8km/h 99% 0.00in /  0mm 184 W/m2
09:20 67.6 °F /  19.8 °C 67.3 °F /  19.6 °C 29.93in /  1013.4hPa NE 2mph /  3.2km/h 5mph /  8km/h 99% 0.00in /  0mm 396 W/m2
09:30 68.2 °F /  20.1 °C 67.9 °F /  19.9 °C 29.93in /  1013.4hPa NNE 2mph /  3.2km/h 5mph /  8km/h 99% 0.00in /  0mm 353 W/m2
09:40 68.8 °F /  20.4 °C 68.5 °F /  20.3 °C 29.93in /  1013.4hPa Calm   3mph /  4.8km/h 99% 0.00in /  0mm 740 W/m2
09:50 70.2 °F /  21.2 °C 69.9 °F /  21.1 °C 29.93in /  1013.4hPa North 1mph /  1.6km/h 4mph /  6.4km/h 99% 0.00in /  0mm 764 W/m2
10:00 71.7 °F /  22.1 °C 71.4 °F /  21.9 °C 29.93in /  1013.4hPa North 5mph /  8km/h 7mph /  11.3km/h 99% 0.00in /  0mm 786 W/m2
10:10 72.7 °F /  22.6 °C 71.5 °F /  21.9 °C 29.93in /  1013.4hPa North 6mph /  9.7km/h 9mph /  14.5km/h 96% 0.00in /  0mm 807 W/m2
10:20 73.5 °F /  23.1 °C 71.6 °F /  22 °C 29.93in /  1013.4hPa NNE 3mph /  4.8km/h 9mph /  14.5km/h 94% 0.00in /  0mm 747 W/m2
10:30 73.9 °F /  23.3 °C 71.8 °F /  22.1 °C 29.93in /  1013.4hPa NNE 3mph /  4.8km/h 9mph /  14.5km/h 93% 0.00in /  0mm 845 W/m2
10:40 74.7 °F /  23.7 °C 72.6 °F /  22.6 °C 29.93in /  1013.4hPa North 5mph /  8km/h 10mph /  16.1km/h 93% 0.00in /  0mm 836 W/m2
10:50 75.6 °F /  24.2 °C 72.5 °F /  22.5 °C 29.92in /  1013.1hPa NNE 3mph /  4.8km/h 8mph /  12.9km/h 90% 0.00in /  0mm 440 W/m2
11:00 75.7 °F /  24.3 °C 72.3 °F /  22.4 °C 29.92in /  1013.1hPa North 5mph /  8km/h 10mph /  16.1km/h 89% 0.00in /  0mm 640 W/m2
11:10 76.1 °F /  24.5 °C 72.6 °F /  22.6 °C 29.92in /  1013.1hPa NNW 5mph /  8km/h 9mph /  14.5km/h 89% 0.00in /  0mm 604 W/m2
11:20 76.3 °F /  24.6 °C 71.8 °F /  22.1 °C 29.92in /  1013.1hPa North 6mph /  9.7km/h 12mph /  19.3km/h 86% 0.00in /  0mm 510 W/m2
11:30 76.5 °F /  24.7 °C 72 °F /  22.2 °C 29.92in /  1013.1hPa NNE 5mph /  8km/h 9mph /  14.5km/h 86% 0.00in /  0mm 441 W/m2
11:40 76.7 °F /  24.8 °C 72.9 °F /  22.7 °C 29.92in /  1013.1hPa North 2mph /  3.2km/h 9mph /  14.5km/h 88% 0.00in /  0mm 938 W/m2
11:50 77.5 °F /  25.3 °C 72.7 °F /  22.6 °C 29.91in /  1012.8hPa North 2mph /  3.2km/h 9mph /  14.5km/h 85% 0.00in /  0mm 551 W/m2
12:00 77.9 °F /  25.5 °C 73 °F /  22.8 °C 29.91in /  1012.8hPa North 3mph /  4.8km/h 10mph /  16.1km/h 85% 0.00in /  0mm 951 W/m2
12:10 79.1 °F /  26.2 °C 73.8 °F /  23.2 °C 29.91in /  1012.8hPa North 3mph /  4.8km/h 11mph /  17.7km/h 84% 0.00in /  0mm 956 W/m2
12:20 80.1 °F /  26.7 °C 74.5 °F /  23.6 °C 29.91in /  1012.8hPa North 2mph /  3.2km/h 10mph /  16.1km/h 83% 0.00in /  0mm 767 W/m2
12:30 80.2 °F /  26.8 °C 73.1 °F /  22.8 °C 29.91in /  1012.8hPa North 5mph /  8km/h 9mph /  14.5km/h 79% 0.00in /  0mm 960 W/m2
12:40 80.8 °F /  27.1 °C 73.7 °F /  23.2 °C 29.90in /  1012.4hPa North 3mph /  4.8km/h 10mph /  16.1km/h 79% 0.00in /  0mm 960 W/m2
12:50 81 °F /  27.2 °C 73.9 °F /  23.3 °C 29.90in /  1012.4hPa North 3mph /  4.8km/h 11mph /  17.7km/h 79% 0.00in /  0mm 727 W/m2
13:00 81.4 °F /  27.4 °C 74.3 °F /  23.5 °C 29.90in /  1012.4hPa NNW 6mph /  9.7km/h 12mph /  19.3km/h 79% 0.00in /  0mm 583 W/m2
13:10 81.9 °F /  27.7 °C 74.3 °F /  23.5 °C 29.89in /  1012.1hPa North 3mph /  4.8km/h 14mph /  22.5km/h 78% 0.00in /  0mm 659 W/m2
13:20 82.4 °F /  28 °C 74.5 °F /  23.6 °C 29.89in /  1012.1hPa NNW 2mph /  3.2km/h 9mph /  14.5km/h 77% 0.00in /  0mm 945 W/m2
13:30 82.4 °F /  28 °C 73.7 °F /  23.2 °C 29.89in /  1012.1hPa North 5mph /  8km/h 10mph /  16.1km/h 75% 0.00in /  0mm 479 W/m2
13:40 82.6 °F /  28.1 °C 74.2 °F /  23.4 °C 29.88in /  1011.7hPa NNW 2mph /  3.2km/h 8mph /  12.9km/h 76% 0.00in /  0mm 466 W/m2
13:50 82.4 °F /  28 °C 73.7 °F /  23.2 °C 29.88in /  1011.7hPa NNW 5mph /  8km/h 12mph /  19.3km/h 75% 0.00in /  0mm 409 W/m2
14:00 82.7 °F /  28.2 °C 73.5 °F /  23.1 °C 29.88in /  1011.7hPa North 3mph /  4.8km/h 8mph /  12.9km/h 74% 0.00in /  0mm 906 W/m2
14:10 83.5 °F /  28.6 °C 73.9 °F /  23.3 °C 29.87in /  1011.4hPa North 5mph /  8km/h 11mph /  17.7km/h 73% 0.00in /  0mm 701 W/m2
14:20 83.5 °F /  28.6 °C 73.9 °F /  23.3 °C 29.87in /  1011.4hPa North 5mph /  8km/h 13mph /  20.9km/h 73% 0.00in /  0mm 432 W/m2
14:30 83.5 °F /  28.6 °C 73.5 °F /  23.1 °C 29.86in /  1011.1hPa North 6mph /  9.7km/h 12mph /  19.3km/h 72% 0.00in /  0mm 862 W/m2
14:40 84.1 °F /  28.9 °C 74.5 °F /  23.6 °C 29.86in /  1011.1hPa North 3mph /  4.8km/h 13mph /  20.9km/h 73% 0.00in /  0mm 726 W/m2
14:50 84.7 °F /  29.3 °C 73.9 °F /  23.3 °C 29.86in /  1011.1hPa North 5mph /  8km/h 13mph /  20.9km/h 70% 0.00in /  0mm 752 W/m2
15:00 85.3 °F /  29.6 °C 74 °F /  23.3 °C 29.86in /  1011.1hPa NNW 5mph /  8km/h 14mph /  22.5km/h 69% 0.00in /  0mm 639 W/m2
15:10 85.2 °F /  29.6 °C 73.9 °F /  23.3 °C 29.85in /  1010.7hPa North 5mph /  8km/h 12mph /  19.3km/h 69% 0.00in /  0mm 785 W/m2
15:20 85.8 °F /  29.9 °C 74 °F /  23.3 °C 29.84in /  1010.4hPa North 5mph /  8km/h 10mph /  16.1km/h 68% 0.00in /  0mm 311 W/m2
15:30 85.6 °F /  29.8 °C 73.4 °F /  23 °C 29.84in /  1010.4hPa North 5mph /  8km/h 12mph /  19.3km/h 67% 0.00in /  0mm 276 W/m2
15:40 85.9 °F /  29.9 °C 73.7 °F /  23.2 °C 29.84in /  1010.4hPa NNW 1mph /  1.6km/h 12mph /  19.3km/h 67% 0.00in /  0mm 680 W/m2
15:50 86.7 °F /  30.4 °C 74.4 °F /  23.6 °C 29.84in /  1010.4hPa North 1mph /  1.6km/h 8mph /  12.9km/h 67% 0.00in /  0mm 684 W/m2
16:00 87.3 °F /  30.7 °C 73.1 °F /  22.8 °C 29.83in /  1010hPa NNE 2mph /  3.2km/h 12mph /  19.3km/h 63% 0.00in /  0mm 665 W/m2
16:10 87.8 °F /  31 °C 72.2 °F /  22.3 °C 29.83in /  1010hPa ENE 5mph /  8km/h 15mph /  24.1km/h 60% 0.00in /  0mm 638 W/m2
16:20 87.5 °F /  30.8 °C 71.9 °F /  22.2 °C 29.83in /  1010hPa ENE 3mph /  4.8km/h 16mph /  25.7km/h 60% 0.00in /  0mm 173 W/m2
16:30 86.3 °F /  30.2 °C 72.2 °F /  22.3 °C 29.83in /  1010hPa NE 3mph /  4.8km/h 10mph /  16.1km/h 63% 0.00in /  0mm 122 W/m2
16:40 85.2 °F /  29.6 °C 71.6 °F /  22 °C 29.83in /  1010hPa NNE 1mph /  1.6km/h 13mph /  20.9km/h 64% 0.00in /  0mm 87 W/m2
16:50 84.4 °F /  29.1 °C 71.3 °F /  21.8 °C 29.83in /  1010hPa North 1mph /  1.6km/h 8mph /  12.9km/h 65% 0.00in /  0mm 76 W/m2
17:00 83.9 °F /  28.8 °C 70.9 °F /  21.6 °C 29.82in /  1009.7hPa North 2mph /  3.2km/h 8mph /  12.9km/h 65% 0.00in /  0mm 95 W/m2
17:10 83.5 °F /  28.6 °C 70.9 °F /  21.6 °C 29.83in /  1010hPa NW 1mph /  1.6km/h 6mph /  9.7km/h 66% 0.00in /  0mm 110 W/m2
17:20 83.3 °F /  28.5 °C 71.6 °F /  22 °C 29.82in /  1009.7hPa NNW 1mph /  1.6km/h 3mph /  4.8km/h 68% 0.00in /  0mm 106 W/m2
17:30 82.9 °F /  28.3 °C 71.7 °F /  22.1 °C 29.82in /  1009.7hPa NW 2mph /  3.2km/h 4mph /  6.4km/h 69% 0.00in /  0mm 69 W/m2
17:40 82.5 °F /  28.1 °C 71.3 °F /  21.8 °C 29.82in /  1009.7hPa NNW 2mph /  3.2km/h 6mph /  9.7km/h 69% 0.00in /  0mm 38 W/m2
17:50 82 °F /  27.8 °C 71.3 °F /  21.8 °C 29.81in /  1009.4hPa WNW 2mph /  3.2km/h 6mph /  9.7km/h 70% 0.00in /  0mm 34 W/m2
18:00 81.7 °F /  27.6 °C 70.9 °F /  21.6 °C 29.82in /  1009.7hPa NNW 5mph /  8km/h 7mph /  11.3km/h 70% 0.00in /  0mm 36 W/m2
18:10 81.3 °F /  27.4 °C 70.6 °F /  21.4 °C 29.81in /  1009.4hPa NNW 2mph /  3.2km/h 7mph /  11.3km/h 70% 0.00in /  0mm 39 W/m2
18:20 81.2 °F /  27.3 °C 71.3 °F /  21.8 °C 29.81in /  1009.4hPa NNW 3mph /  4.8km/h 6mph /  9.7km/h 72% 0.00in /  0mm 37 W/m2
18:30 80.9 °F /  27.2 °C 71.8 °F /  22.1 °C 29.81in /  1009.4hPa NW 1mph /  1.6km/h 6mph /  9.7km/h 74% 0.00in /  0mm 44 W/m2
18:40 80.5 °F /  26.9 °C 71.5 °F /  21.9 °C 29.81in /  1009.4hPa NNW 2mph /  3.2km/h 6mph /  9.7km/h 74% 0.00in /  0mm 39 W/m2
18:50 80.3 °F /  26.8 °C 71.7 °F /  22.1 °C 29.81in /  1009.4hPa West 2mph /  3.2km/h 6mph /  9.7km/h 75% 0.00in /  0mm 32 W/m2
19:00 79.7 °F /  26.5 °C 72.2 °F /  22.3 °C 29.82in /  1009.7hPa SSW 2mph /  3.2km/h 3mph /  4.8km/h 78% 0.00in /  0mm 26 W/m2
19:10 79.3 °F /  26.3 °C 72.3 °F /  22.4 °C 29.81in /  1009.4hPa West 2mph /  3.2km/h 5mph /  8km/h 79% 0.00in /  0mm 10 W/m2
19:20 78.9 °F /  26.1 °C 71.8 °F /  22.1 °C 29.83in /  1010hPa West 2mph /  3.2km/h 6mph /  9.7km/h 79% 0.00in /  0mm 6 W/m2
19:30 78 °F /  25.6 °C 71.3 °F /  21.8 °C 29.83in /  1010hPa WSW 6mph /  9.7km/h 12mph /  19.3km/h 80% 0.00in /  0mm 10 W/m2
19:40 77.3 °F /  25.2 °C 69.5 °F /  20.8 °C 29.84in /  1010.4hPa WSW 8mph /  12.9km/h 13mph /  20.9km/h 77% 0.00in /  0mm 5 W/m2
19:50 76.4 °F /  24.7 °C 67.8 °F /  19.9 °C 29.84in /  1010.4hPa West 6mph /  9.7km/h 14mph /  22.5km/h 75% 0.00in /  0mm 2 W/m2
20:00 75.5 °F /  24.2 °C 68.5 °F /  20.3 °C 29.84in /  1010.4hPa WSW 10mph /  16.1km/h 20mph /  32.2km/h 79% 0.00in /  0mm 0 W/m2
20:10 73.8 °F /  23.2 °C 67.6 °F /  19.8 °C 29.85in /  1010.7hPa SW 8mph /  12.9km/h 20mph /  32.2km/h 81% 0.00in /  0mm 0 W/m2
20:20 72.9 °F /  22.7 °C 67.4 °F /  19.7 °C 29.84in /  1010.4hPa SW 8mph /  12.9km/h 12mph /  19.3km/h 83% 0.00in /  0mm 0 W/m2
20:30 72.7 °F /  22.6 °C 66.2 °F /  19 °C 29.84in /  1010.4hPa SW 6mph /  9.7km/h 12mph /  19.3km/h 80% 0.00in /  0mm 0 W/m2
20:40 72.3 °F /  22.4 °C 65.8 °F /  18.8 °C 29.84in /  1010.4hPa WSW 5mph /  8km/h 15mph /  24.1km/h 80% 0.00in /  0mm 0 W/m2
20:50 71.8 °F /  22.1 °C 65.3 °F /  18.5 °C 29.85in /  1010.7hPa WSW 5mph /  8km/h 11mph /  17.7km/h 80% 0.00in /  0mm 0 W/m2
21:00 71.8 °F /  22.1 °C 65.6 °F /  18.7 °C 29.84in /  1010.4hPa WSW 2mph /  3.2km/h 9mph /  14.5km/h 81% 0.00in /  0mm 0 W/m2
21:10 71.6 °F /  22 °C 65.5 °F /  18.6 °C 29.84in /  1010.4hPa WSW 3mph /  4.8km/h 7mph /  11.3km/h 81% 0.00in /  0mm 0 W/m2
21:20 71.6 °F /  22 °C 65.5 °F /  18.6 °C 29.85in /  1010.7hPa Calm   5mph /  8km/h 81% 0.00in /  0mm 0 W/m2
21:30 71.4 °F /  21.9 °C 66.3 °F /  19.1 °C 29.86in /  1011.1hPa South 2mph /  3.2km/h 5mph /  8km/h 84% 0.00in /  0mm 0 W/m2
21:40 71.3 °F /  21.8 °C 66.2 °F /  19 °C 29.86in /  1011.1hPa South 2mph /  3.2km/h 5mph /  8km/h 84% 0.00in /  0mm 0 W/m2
21:50 71.2 °F /  21.8 °C 66.5 °F /  19.2 °C 29.86in /  1011.1hPa SW 1mph /  1.6km/h 3mph /  4.8km/h 85% 0.00in /  0mm 0 W/m2
22:00 71.1 °F /  21.7 °C 66.4 °F /  19.1 °C 29.87in /  1011.4hPa SW 12mph /  19.3km/h 16mph /  25.7km/h 85% 0.00in /  0mm 0 W/m2
22:10 70.6 °F /  21.4 °C 65.9 °F /  18.8 °C 29.87in /  1011.4hPa SW 10mph /  16.1km/h 18mph /  29km/h 85% 0.00in /  0mm 0 W/m2
22:20 70 °F /  21.1 °C 65.6 °F /  18.7 °C 29.87in /  1011.4hPa SW 9mph /  14.5km/h 15mph /  24.1km/h 86% 0.00in /  0mm 0 W/m2
22:30 69.2 °F /  20.7 °C 65.5 °F /  18.6 °C 29.88in /  1011.7hPa SW 12mph /  19.3km/h 16mph /  25.7km/h 88% 0.00in /  0mm 0 W/m2
22:40 68.7 °F /  20.4 °C 65.3 °F /  18.5 °C 29.88in /  1011.7hPa SW 9mph /  14.5km/h 17mph /  27.4km/h 89% 0.00in /  0mm 0 W/m2
22:50 68.5 °F /  20.3 °C 65.2 °F /  18.4 °C 29.89in /  1012.1hPa SW 6mph /  9.7km/h 15mph /  24.1km/h 89% 0.00in /  0mm 0 W/m2
23:00 68.5 °F /  20.3 °C 65.2 °F /  18.4 °C 29.88in /  1011.7hPa SW 7mph /  11.3km/h 12mph /  19.3km/h 89% 0.00in /  0mm 0 W/m2
23:10 68.5 °F /  20.3 °C 65.5 °F /  18.6 °C 29.88in /  1011.7hPa SW 3mph /  4.8km/h 8mph /  12.9km/h 90% 0.00in /  0mm 0 W/m2
23:20 68.5 °F /  20.3 °C 65.2 °F /  18.4 °C 29.89in /  1012.1hPa SW 5mph /  8km/h 8mph /  12.9km/h 89% 0.00in /  0mm 0 W/m2
23:30 68.5 °F /  20.3 °C 65.2 °F /  18.4 °C 29.89in /  1012.1hPa SW 6mph /  9.7km/h 8mph /  12.9km/h 89% 0.00in /  0mm 0 W/m2
23:40 68.5 °F /  20.3 °C 65.5 °F /  18.6 °C 29.89in /  1012.1hPa SW 6mph /  9.7km/h 7mph /  11.3km/h 90% 0.00in /  0mm 0 W/m2
23:50 68.4 °F /  20.2 °C 65.3 °F /  18.5 °C 29.89in /  1012.1hPa SW 5mph /  8km/h 8mph /  12.9km/h 90% 0.00in /  0mm 0 W/m2
Knjazevac, Serbia
Compliments of Weather Underground - 2 mb